Time;durP1;ratioP1;P1;durP2;ratioP2;P2;SDS_P1;SDS_P2;PMS_P1;PMS_P2;Temp;Humidity;BMP_temperature;BMP_pressure;BME280_temperature;BME280_humidity;BME280_pressure;Samples;Min_cycle;Max_cycle;Signal;HPM_P1;HPM_P2
2022/03/26 00:01:49;;;;;;;75.90;43.10;;;6.40;99.90;;;;;;5053330;28;20045;-76
2022/03/26 00:04:15;;;;;;;88.82;47.13;;;6.90;99.90;;;;;;5053639;28;20047;-76
2022/03/26 00:06:41;;;;;;;75.25;43.60;;;6.10;99.90;;;;;;5053356;28;20041;-76
2022/03/26 00:09:07;;;;;;;72.70;42.40;;;6.10;99.90;;;;;;5053525;28;20036;-76
2022/03/26 00:11:33;;;;;;;84.13;46.67;;;6.10;99.90;;;;;;5053342;28;20041;-77
2022/03/26 00:13:58;;;;;;;77.38;45.80;;;6.10;99.90;;;;;;5070402;28;20820;-76
2022/03/26 00:16:24;;;;;;;83.25;47.58;;;7.40;99.90;;;;;;5038521;28;20050;-76
2022/03/26 00:18:50;;;;;;;91.70;51.40;;;6.30;99.90;;;;;;5057441;28;20036;-76
2022/03/26 00:21:15;;;;;;;93.55;52.03;;;6.00;99.90;;;;;;5073677;28;20047;-76
2022/03/26 00:23:42;;;;;;;88.82;48.38;;;6.20;99.90;;;;;;5073599;28;20472;-76
2022/03/26 00:26:11;;;;;;;77.25;45.13;;;5.90;99.90;;;;;;5057067;28;20040;-76
2022/03/26 00:28:37;;;;;;;91.57;49.85;;;7.00;99.90;;;;;;5057250;28;20039;-76
2022/03/26 00:31:04;;;;;;;90.95;51.90;;;6.00;99.90;;;;;;5073507;28;20115;-76
2022/03/26 00:33:30;;;;;;;91.57;49.80;;;6.00;99.90;;;;;;5056791;28;20128;-75
2022/03/26 00:35:56;;;;;;;96.68;52.05;;;6.00;99.90;;;;;;5057040;28;20553;-75
2022/03/26 00:38:23;;;;;;;95.00;52.17;;;6.00;99.90;;;;;;5040243;28;20070;-75
2022/03/26 00:40:48;;;;;;;91.43;49.65;;;5.90;99.90;;;;;;5073633;28;20480;-75
2022/03/26 00:43:14;;;;;;;92.30;51.08;;;7.20;99.90;;;;;;5056705;28;20051;-76
2022/03/26 00:45:40;;;;;;;94.78;51.10;;;5.90;99.90;;;;;;5073130;28;20052;-76
2022/03/26 00:48:06;;;;;;;92.88;51.47;;;5.80;99.90;;;;;;5056870;28;20487;-76
2022/03/26 00:50:32;;;;;;;96.07;53.20;;;5.80;99.90;;;;;;5039935;28;20037;-76
2022/03/26 00:52:58;;;;;;;98.80;53.72;;;5.80;99.90;;;;;;5056767;28;20089;-75
2022/03/26 00:55:24;;;;;;;104.53;52.78;;;5.80;99.90;;;;;;5056503;28;20048;-75
2022/03/26 00:57:50;;;;;;;102.47;54.78;;;5.70;99.90;;;;;;5023396;28;20044;-75
2022/03/26 01:00:15;;;;;;;99.93;52.78;;;5.80;99.90;;;;;;5056380;28;20071;-75
2022/03/26 01:02:41;;;;;;;98.13;53.05;;;5.70;99.90;;;;;;5073234;28;20036;-76
2022/03/26 01:05:07;;;;;;;94.50;52.78;;;5.60;99.90;;;;;;5056288;28;20040;-76
2022/03/26 01:07:33;;;;;;;98.38;51.75;;;5.70;99.90;;;;;;5073149;28;20484;-76
2022/03/26 01:09:59;;;;;;;106.20;53.75;;;6.70;99.90;;;;;;5072904;28;20075;-76
2022/03/26 01:12:25;;;;;;;104.82;55.80;;;5.60;99.90;;;;;;5056411;28;20080;-76
2022/03/26 01:14:52;;;;;;;96.85;51.88;;;5.60;99.90;;;;;;5056114;28;20083;-76
2022/03/26 01:17:19;;;;;;;95.50;51.53;;;5.50;99.90;;;;;;5039621;28;20036;-76
2022/03/26 01:19:45;;;;;;;96.70;52.38;;;5.60;99.90;;;;;;5072633;28;20054;-76
2022/03/26 01:22:12;;;;;;;99.13;52.10;;;5.50;99.90;;;;;;5056353;28;20087;-77
2022/03/26 01:24:38;;;;;;;90.28;51.70;;;5.90;99.90;;;;;;5055740;28;20508;-75
2022/03/26 01:27:04;;;;;;;89.68;48.22;;;6.10;99.90;;;;;;5039028;28;20119;-76
2022/03/26 01:29:30;;;;;;;93.05;49.55;;;5.40;99.90;;;;;;5056145;28;20036;-76
2022/03/26 01:31:55;;;;;;;83.38;48.10;;;5.40;99.90;;;;;;5056091;28;20047;-76
2022/03/26 01:34:24;;;;;;;89.10;48.17;;;5.30;99.90;;;;;;5055782;28;20119;-76
2022/03/26 01:36:49;;;;;;;90.38;48.17;;;5.80;99.90;;;;;;5056529;28;20040;-76
2022/03/26 01:39:15;;;;;;;85.30;46.67;;;5.30;99.90;;;;;;5072592;28;20059;-76
2022/03/26 01:41:41;;;;;;;86.03;45.28;;;5.30;99.90;;;;;;5072512;28;20097;-76
2022/03/26 01:44:12;;;;;;;85.28;45.05;;;5.30;99.90;;;;;;5022439;28;20038;-76
2022/03/26 01:46:52;;;;;;;89.30;45.30;;;5.20;99.90;;;;;;5055526;28;20550;-76
2022/03/26 01:49:18;;;;;;;83.43;45.05;;;5.20;99.90;;;;;;5055768;28;20411;-76
2022/03/26 01:51:44;;;;;;;87.97;44.63;;;6.30;99.90;;;;;;5055411;28;20051;-75
2022/03/26 01:54:11;;;;;;;82.57;44.13;;;5.20;99.90;;;;;;5055637;28;20036;-76
2022/03/26 01:56:38;;;;;;;81.53;45.17;;;5.10;99.90;;;;;;5071907;28;20048;-75
2022/03/26 01:59:05;;;;;;;80.80;43.60;;;5.10;99.90;;;;;;5055301;28;20124;-75
2022/03/26 02:01:33;;;;;;;88.03;49.08;;;5.00;99.90;;;;;;5055236;28;20124;-75
2022/03/26 02:04:03;;;;;;;95.80;49.25;;;5.00;99.90;;;;;;5038871;28;20127;-76
2022/03/26 02:06:31;;;;;;;94.32;48.53;;;5.00;99.90;;;;;;5054939;28;20127;-78
2022/03/26 02:09:05;;;;;;;101.40;52.60;;;5.00;99.90;;;;;;5071872;28;20101;-75
2022/03/26 02:11:32;;;;;;;95.43;50.13;;;5.00;99.90;;;;;;5055010;28;20033;-76
2022/03/26 02:13:58;;;;;;;102.45;51.63;;;5.00;99.90;;;;;;5054987;28;20033;-76
2022/03/26 02:16:25;;;;;;;92.68;48.90;;;4.90;99.90;;;;;;5071699;28;20047;-75
2022/03/26 02:18:52;;;;;;;97.65;52.35;;;4.90;99.90;;;;;;5055072;28;20051;-76
2022/03/26 02:21:20;;;;;;;101.05;52.47;;;4.90;99.90;;;;;;5038307;28;20175;-76
2022/03/26 02:23:47;;;;;;;96.75;52.17;;;4.90;99.90;;;;;;5071496;28;20446;-76
2022/03/26 02:26:18;;;;;;;97.80;51.50;;;4.90;99.90;;;;;;5054685;28;20040;-76
2022/03/26 02:28:45;;;;;;;97.13;50.13;;;4.80;99.90;;;;;;5054688;28;20037;-77
2022/03/26 02:31:12;;;;;;;105.57;52.03;;;5.70;99.90;;;;;;5071372;28;20060;-76
2022/03/26 02:33:39;;;;;;;97.90;50.70;;;4.80;99.90;;;;;;5054991;28;20044;-76
2022/03/26 02:36:05;;;;;;;101.72;54.40;;;4.80;99.90;;;;;;5054653;28;20044;-76
2022/03/26 02:38:31;;;;;;;111.10;56.90;;;4.70;99.90;;;;;;5070425;28;20127;-77
2022/03/26 02:40:57;;;;;;;111.18;56.83;;;4.80;99.90;;;;;;5071349;28;20547;-77
2022/03/26 02:43:22;;;;;;;108.93;54.65;;;4.70;99.90;;;;;;5037893;28;20044;-76
2022/03/26 02:45:48;;;;;;;106.72;55.50;;;5.10;99.90;;;;;;5037868;28;20533;-76
2022/03/26 02:48:14;;;;;;;118.85;61.88;;;5.20;99.90;;;;;;5037767;28;20094;-77
2022/03/26 02:50:42;;;;;;;110.45;57.88;;;4.70;99.90;;;;;;5054557;28;20086;-76
2022/03/26 02:53:07;;;;;;;120.28;61.35;;;4.60;99.90;;;;;;5038157;28;20499;-76
2022/03/26 02:55:34;;;;;;;125.55;62.25;;;4.90;99.90;;;;;;5054130;28;20044;-77
2022/03/26 02:58:00;;;;;;;130.63;65.95;;;5.60;99.90;;;;;;5054278;28;20048;-77
2022/03/26 03:00:26;;;;;;;127.35;65.10;;;4.60;99.90;;;;;;5037585;28;20044;-77
2022/03/26 03:02:52;;;;;;;130.95;64.70;;;4.70;99.90;;;;;;5071169;28;20047;-77
2022/03/26 03:05:18;;;;;;;134.18;68.95;;;5.50;99.90;;;;;;5070889;28;20032;-76
2022/03/26 03:07:45;;;;;;;127.50;67.07;;;4.70;99.90;;;;;;5070683;28;20067;-77
2022/03/26 03:10:15;;;;;;;130.82;66.07;;;4.60;99.90;;;;;;5070980;28;20442;-77
2022/03/26 03:12:44;;;;;;;150.97;72.57;;;5.70;99.90;;;;;;5071076;28;20154;-76
2022/03/26 03:15:16;;;;;;;145.60;71.80;;;4.60;99.90;;;;;;5054386;28;20048;-75
2022/03/26 03:17:42;;;;;;;130.25;65.70;;;5.60;99.90;;;;;;5054181;28;20536;-76
2022/03/26 03:20:09;;;;;;;128.60;65.30;;;4.60;99.90;;;;;;5053859;28;20131;-75
2022/03/26 03:22:36;;;;;;;150.75;72.05;;;4.60;99.90;;;;;;5070898;28;20448;-75
2022/03/26 03:25:04;;;;;;;141.60;69.80;;;4.70;99.90;;;;;;5053533;28;20083;-76
2022/03/26 03:27:30;;;;;;;141.45;69.22;;;4.60;99.90;;;;;;5070708;28;20511;-76
2022/03/26 03:29:55;;;;;;;147.77;73.07;;;4.50;99.90;;;;;;5053789;28;20041;-75
2022/03/26 03:32:21;;;;;;;147.07;71.13;;;5.00;99.90;;;;;;5070720;28;20103;-75
2022/03/26 03:34:47;;;;;;;149.90;73.78;;;4.50;99.90;;;;;;5053985;28;20127;-76
2022/03/26 03:37:13;;;;;;;142.57;68.75;;;4.50;99.90;;;;;;5037144;28;20044;-76
2022/03/26 03:39:39;;;;;;;142.80;71.65;;;4.50;99.90;;;;;;5070517;28;20476;-76
2022/03/26 03:42:05;;;;;;;145.63;71.43;;;4.40;99.90;;;;;;5070559;28;20127;-75
2022/03/26 03:44:31;;;;;;;152.40;74.30;;;4.40;99.90;;;;;;5070198;28;20128;-75
2022/03/26 03:46:57;;;;;;;151.85;73.97;;;4.40;99.90;;;;;;5053861;28;20127;-76
2022/03/26 03:49:26;;;;;;;149.23;74.85;;;4.40;99.90;;;;;;5053984;28;20033;-76
2022/03/26 03:51:52;;;;;;;156.57;75.75;;;4.40;99.90;;;;;;5074578;28;20458;-76
2022/03/26 03:54:18;;;;;;;152.73;74.55;;;4.40;99.90;;;;;;5057626;28;20037;-76
2022/03/26 03:56:44;;;;;;;149.70;76.07;;;4.40;99.90;;;;;;5057576;28;20567;-76
2022/03/26 03:59:10;;;;;;;161.85;77.07;;;4.40;99.90;;;;;;5057579;28;20500;-76
2022/03/26 04:01:35;;;;;;;154.57;73.40;;;4.40;99.90;;;;;;5074102;28;20044;-75
2022/03/26 04:04:01;;;;;;;152.77;74.47;;;4.40;99.90;;;;;;5074061;28;20547;-76
2022/03/26 04:06:27;;;;;;;142.88;72.50;;;4.40;99.90;;;;;;5040698;28;20036;-75
2022/03/26 04:08:53;;;;;;;143.40;70.60;;;4.40;99.90;;;;;;5057269;28;20040;-76
2022/03/26 04:11:18;;;;;;;153.63;71.22;;;4.60;99.90;;;;;;5073976;28;20047;-76
2022/03/26 04:13:46;;;;;;;147.68;71.40;;;4.30;99.90;;;;;;5057523;28;20047;-76
2022/03/26 04:16:12;;;;;;;143.10;69.90;;;4.40;99.90;;;;;;5073801;28;20052;-76
2022/03/26 04:18:38;;;;;;;150.00;74.55;;;4.40;99.90;;;;;;5073713;28;20129;-76
2022/03/26 04:21:04;;;;;;;142.38;71.20;;;4.40;99.90;;;;;;5073704;28;20087;-76
2022/03/26 04:23:30;;;;;;;136.82;71.35;;;4.30;99.90;;;;;;5073535;28;20048;-76
2022/03/26 04:25:56;;;;;;;146.63;69.50;;;4.30;99.90;;;;;;5057049;28;20054;-76
2022/03/26 04:28:22;;;;;;;135.18;69.03;;;4.30;99.90;;;;;;5056910;28;20098;-76
2022/03/26 04:30:47;;;;;;;135.13;65.72;;;4.30;99.90;;;;;;5040596;28;20039;-76
2022/03/26 04:33:13;;;;;;;122.65;62.53;;;4.80;99.90;;;;;;5056921;28;20043;-76
2022/03/26 04:35:39;;;;;;;131.95;66.07;;;4.10;99.90;;;;;;5040237;28;20048;-76
2022/03/26 04:38:05;;;;;;;130.93;67.28;;;4.00;99.90;;;;;;5040121;28;20110;-76
2022/03/26 04:40:30;;;;;;;140.48;68.03;;;3.90;99.90;;;;;;5073701;28;20036;-76
2022/03/26 04:42:56;;;;;;;146.55;71.30;;;3.90;99.90;;;;;;5073233;28;20041;-76
2022/03/26 04:45:25;;;;;;;146.32;71.25;;;3.90;99.90;;;;;;5073417;28;20059;-76
2022/03/26 04:47:51;;;;;;;153.27;72.55;;;4.20;99.90;;;;;;5073508;28;20500;-76
2022/03/26 04:50:17;;;;;;;153.07;72.00;;;4.00;99.90;;;;;;5040032;28;20127;-76
2022/03/26 04:52:42;;;;;;;146.50;71.70;;;4.00;99.90;;;;;;5056446;28;20032;-76
2022/03/26 04:55:11;;;;;;;146.90;71.07;;;4.70;99.90;;;;;;5056435;28;20044;-76
2022/03/26 04:57:44;;;;;;;152.60;72.22;;;4.30;99.90;;;;;;5039910;28;20082;-76
2022/03/26 05:00:12;;;;;;;142.93;70.40;;;4.10;99.90;;;;;;5056447;28;20135;-76
2022/03/26 05:02:39;;;;;;;153.15;72.22;;;4.20;99.90;;;;;;5071974;28;20037;-75
2022/03/26 05:05:06;;;;;;;151.82;72.30;;;4.20;99.90;;;;;;5073082;28;20466;-76
2022/03/26 05:07:47;;;;;;;161.13;74.03;;;4.20;99.90;;;;;;5039557;28;20044;-76
2022/03/26 05:10:20;;;;;;;147.00;72.18;;;4.20;99.90;;;;;;5073268;28;20506;-77
2022/03/26 05:12:47;;;;;;;140.55;69.28;;;4.20;99.90;;;;;;5072775;28;20036;-77
2022/03/26 05:15:14;;;;;;;146.60;70.55;;;4.40;99.90;;;;;;5072931;28;20403;-77
2022/03/26 05:17:40;;;;;;;157.85;77.13;;;4.20;99.90;;;;;;5055967;28;20055;-77
2022/03/26 05:20:07;;;;;;;155.10;75.82;;;4.20;99.90;;;;;;5072646;28;20043;-77
2022/03/26 05:22:33;;;;;;;163.98;76.15;;;4.20;99.90;;;;;;5056111;28;20044;-77
2022/03/26 05:24:59;;;;;;;159.52;75.93;;;4.20;99.90;;;;;;5039060;28;20186;-77
2022/03/26 05:27:25;;;;;;;150.00;74.90;;;4.20;99.90;;;;;;5072746;28;20551;-77
2022/03/26 05:29:50;;;;;;;158.93;75.32;;;5.00;99.90;;;;;;5056042;28;20032;-78
2022/03/26 05:32:16;;;;;;;167.45;80.82;;;4.10;99.90;;;;;;5056089;28;20036;-77
2022/03/26 05:34:45;;;;;;;172.27;79.68;;;4.20;99.90;;;;;;5055970;28;20041;-77
2022/03/26 05:37:12;;;;;;;160.75;75.15;;;4.20;99.90;;;;;;5055712;28;20040;-77
2022/03/26 05:39:38;;;;;;;165.98;76.85;;;4.20;99.90;;;;;;5022630;28;20036;-77
2022/03/26 05:42:04;;;;;;;164.93;79.47;;;4.30;99.90;;;;;;5055548;28;20086;-77
2022/03/26 05:44:30;;;;;;;162.32;78.70;;;4.30;99.90;;;;;;5055385;28;20119;-77
2022/03/26 05:46:56;;;;;;;150.88;74.93;;;4.40;99.90;;;;;;5038848;28;20032;-77
2022/03/26 05:49:22;;;;;;;169.38;80.35;;;4.30;99.90;;;;;;5055530;28;20040;-77
2022/03/26 05:51:48;;;;;;;158.85;76.50;;;4.40;99.90;;;;;;5055398;28;20037;-77
2022/03/26 05:54:14;;;;;;;148.50;74.38;;;5.70;99.90;;;;;;5038784;28;20480;-77
2022/03/26 05:56:40;;;;;;;157.05;76.22;;;4.60;99.90;;;;;;5055714;28;20079;-77
2022/03/26 05:59:10;;;;;;;151.77;73.78;;;4.40;99.90;;;;;;5055294;28;20072;-77
2022/03/26 06:01:36;;;;;;;154.93;76.38;;;4.40;99.90;;;;;;5071891;28;20048;-76
2022/03/26 06:04:02;;;;;;;151.55;74.25;;;4.80;99.90;;;;;;5072192;28;20574;-77
2022/03/26 06:06:28;;;;;;;164.85;77.03;;;4.50;99.90;;;;;;5071690;28;20047;-77
2022/03/26 06:08:54;;;;;;;167.52;75.88;;;4.50;99.90;;;;;;5055084;28;20127;-77
2022/03/26 06:11:20;;;;;;;174.25;81.95;;;4.60;99.90;;;;;;5038795;28;20056;-77
2022/03/26 06:13:46;;;;;;;164.52;79.90;;;4.60;99.90;;;;;;5038370;28;20136;-76
2022/03/26 06:16:13;;;;;;;160.38;77.80;;;4.70;99.90;;;;;;5071589;28;20094;-77
2022/03/26 06:18:39;;;;;;;164.20;77.68;;;4.70;99.90;;;;;;5038676;28;20040;-77
2022/03/26 06:21:05;;;;;;;162.65;78.35;;;4.80;99.90;;;;;;5071570;28;20040;-76
2022/03/26 06:23:32;;;;;;;166.55;77.95;;;4.90;99.90;;;;;;5038150;28;20036;-76
2022/03/26 06:25:58;;;;;;;162.43;77.75;;;5.90;99.90;;;;;;5071354;28;20040;-77
2022/03/26 06:28:24;;;;;;;157.25;76.22;;;5.10;99.90;;;;;;5054539;28;20098;-76
2022/03/26 06:30:51;;;;;;;154.48;77.32;;;5.10;99.90;;;;;;5054624;28;20068;-76
2022/03/26 06:33:18;;;;;;;151.75;75.15;;;5.50;99.90;;;;;;5054552;28;20037;-76
2022/03/26 06:35:44;;;;;;;148.57;74.75;;;5.40;99.90;;;;;;5038308;28;20432;-76
2022/03/26 06:38:10;;;;;;;152.82;74.03;;;5.50;99.90;;;;;;5038035;28;20040;-76
2022/03/26 06:40:38;;;;;;;153.07;75.47;;;5.60;99.90;;;;;;5054410;28;20036;-74
2022/03/26 06:43:04;;;;;;;151.02;75.80;;;5.70;99.90;;;;;;5054780;28;20479;-76
2022/03/26 06:45:30;;;;;;;153.30;74.07;;;5.80;99.90;;;;;;5054588;28;20037;-76
2022/03/26 06:47:56;;;;;;;151.38;78.50;;;6.00;99.90;;;;;;5038062;28;20044;-76
2022/03/26 06:50:22;;;;;;;147.68;74.88;;;6.00;99.90;;;;;;5070966;28;20135;-76
2022/03/26 06:52:48;;;;;;;147.45;76.70;;;6.20;99.90;;;;;;5054330;28;20044;-76
2022/03/26 06:55:14;;;;;;;142.95;72.03;;;6.30;99.90;;;;;;5054261;28;20168;-76
2022/03/26 06:57:41;;;;;;;142.10;74.03;;;6.40;99.90;;;;;;5071095;28;20127;-76
2022/03/26 07:00:09;;;;;;;128.77;69.53;;;6.60;99.90;;;;;;5054211;28;20137;-77
2022/03/26 07:02:38;;;;;;;136.23;71.18;;;6.70;99.90;;;;;;5054188;28;20048;-78
2022/03/26 07:05:05;;;;;;;134.13;70.82;;;7.40;99.90;;;;;;5070851;28;20086;-78
2022/03/26 07:07:31;;;;;;;131.98;66.60;;;7.00;99.90;;;;;;5054378;28;20131;-77
2022/03/26 07:10:00;;;;;;;126.97;67.35;;;7.30;99.90;;;;;;5053648;28;20076;-76
2022/03/26 07:12:29;;;;;;;125.72;66.30;;;7.30;99.90;;;;;;5054033;28;20037;-77
2022/03/26 07:14:55;;;;;;;117.97;63.72;;;7.40;99.90;;;;;;5038245;28;20135;-78
2022/03/26 07:17:21;;;;;;;115.43;60.80;;;7.60;99.90;;;;;;5020647;28;20407;-75
2022/03/26 07:19:47;;;;;;;116.05;63.15;;;7.80;99.90;;;;;;5070658;28;20056;-77
2022/03/26 07:22:13;;;;;;;111.93;58.67;;;7.90;99.90;;;;;;5053804;28;20036;-76
2022/03/26 07:24:39;;;;;;;112.75;60.85;;;8.00;99.90;;;;;;5052994;28;20104;-75
2022/03/26 07:27:05;;;;;;;108.70;60.22;;;8.10;99.90;;;;;;5021295;28;20454;-75
2022/03/26 07:29:32;;;;;;;116.85;62.55;;;8.30;99.90;;;;;;5036927;28;20032;-77
2022/03/26 07:31:58;;;;;;;104.53;59.63;;;8.40;99.90;;;;;;5070981;28;20032;-76
2022/03/26 07:34:26;;;;;;;107.32;58.38;;;8.50;99.90;;;;;;5070722;28;20055;-77
2022/03/26 07:36:52;;;;;;;105.50;56.28;;;8.60;99.90;;;;;;5053934;28;20052;-77
2022/03/26 07:39:18;;;;;;;106.18;57.10;;;8.70;99.90;;;;;;5053339;28;20106;-76
2022/03/26 07:41:44;;;;;;;113.78;59.50;;;8.80;99.90;;;;;;5069975;28;20075;-77
2022/03/26 07:44:10;;;;;;;96.15;55.95;;;8.90;99.90;;;;;;5053666;28;20040;-76
2022/03/26 07:46:35;;;;;;;99.22;56.13;;;9.10;99.90;;;;;;5036819;28;20119;-75
2022/03/26 07:49:01;;;;;;;91.88;51.83;;;9.10;99.90;;;;;;5053678;28;20087;-76
2022/03/26 07:51:27;;;;;;;99.13;55.50;;;9.30;99.90;;;;;;5037133;28;20068;-78
2022/03/26 07:53:53;;;;;;;98.15;54.58;;;9.40;99.90;;;;;;5053456;28;20522;-77
2022/03/26 07:56:19;;;;;;;91.38;51.78;;;9.60;99.90;;;;;;5053566;28;20071;-76
2022/03/26 07:58:44;;;;;;;90.68;50.35;;;9.70;99.90;;;;;;5053877;28;20135;-77
2022/03/26 08:01:10;;;;;;;87.18;50.17;;;9.90;99.90;;;;;;5020797;28;20040;-75
2022/03/26 08:03:36;;;;;;;96.00;53.67;;;10.10;99.90;;;;;;5037250;28;20052;-76
2022/03/26 08:06:03;;;;;;;88.43;49.25;;;10.20;99.90;;;;;;5053569;28;20101;-77
2022/03/26 08:08:28;;;;;;;89.18;48.70;;;10.40;99.90;;;;;;5070145;28;20047;-75
2022/03/26 08:10:54;;;;;;;84.97;48.40;;;10.40;99.90;;;;;;5070201;28;20491;-75
2022/03/26 08:13:20;;;;;;;88.97;47.88;;;10.60;99.90;;;;;;5053444;28;20139;-75
2022/03/26 08:15:45;;;;;;;86.40;47.92;;;10.60;99.90;;;;;;5053382;28;20040;-76
2022/03/26 08:18:11;;;;;;;83.10;47.00;;;11.00;99.90;;;;;;5053404;28;20040;-74
2022/03/26 08:20:37;;;;;;;83.20;48.33;;;10.90;99.90;;;;;;5037070;28;20193;-74
2022/03/26 08:23:02;;;;;;;81.07;45.70;;;11.00;99.90;;;;;;5070105;28;20051;-75
2022/03/26 08:28:13;;;;;;;78.07;44.75;;;;;;;;;;5069911;28;20083;-74
2022/03/26 08:30:40;;;;;;;75.55;44.13;;;11.50;99.90;;;;;;5069932;28;20041;-76
2022/03/26 08:33:06;;;;;;;69.82;41.05;;;11.70;99.90;;;;;;5070048;28;20048;-75
2022/03/26 08:35:38;;;;;;;67.85;40.00;;;11.80;99.90;;;;;;5037090;28;20131;-78
2022/03/26 08:38:05;;;;;;;76.32;42.58;;;11.90;99.90;;;;;;5056050;28;20055;-76
2022/03/26 08:40:31;;;;;;;76.20;43.45;;;12.10;99.90;;;;;;5073604;28;20050;-77
2022/03/26 08:43:00;;;;;;;60.05;37.55;;;12.30;99.90;;;;;;5040201;28;20117;-76
2022/03/26 08:45:29;;;;;;;57.95;34.67;;;12.40;99.90;;;;;;5057133;28;20094;-77
2022/03/26 08:47:56;;;;;;;56.38;35.00;;;12.60;99.90;;;;;;5074127;28;20029;-76
2022/03/26 08:50:22;;;;;;;49.97;30.92;;;12.70;99.90;;;;;;5057113;28;20475;-76
2022/03/26 08:52:49;;;;;;;54.50;30.02;;;12.90;99.90;;;;;;5073430;28;20102;-77
2022/03/26 08:55:18;;;;;;;50.25;28.02;;;13.10;99.90;;;;;;5056744;28;20044;-77
2022/03/26 08:57:44;;;;;;;47.83;27.42;;;13.20;99.90;;;;;;5056989;28;20040;-77
2022/03/26 09:00:12;;;;;;;43.10;27.48;;;13.30;99.90;;;;;;5073308;28;20127;-77
2022/03/26 09:02:39;;;;;;;43.80;28.38;;;13.40;99.90;;;;;;5056993;28;20488;-76
2022/03/26 09:05:09;;;;;;;46.22;28.35;;;13.50;99.90;;;;;;5040021;28;20059;-78
2022/03/26 09:07:35;;;;;;;39.45;27.38;;;13.70;99.90;;;;;;5056726;28;20041;-77
2022/03/26 09:10:02;;;;;;;40.97;27.65;;;13.80;99.90;;;;;;5073066;28;20040;-76
2022/03/26 09:12:27;;;;;;;46.15;29.23;;;13.80;99.90;;;;;;5039685;28;20044;-76
2022/03/26 09:14:53;;;;;;;53.10;28.65;;;13.90;99.90;;;;;;5056458;28;20051;-77
2022/03/26 09:17:19;;;;;;;44.13;28.33;;;14.00;99.90;;;;;;5056168;28;20044;-78
2022/03/26 09:19:44;;;;;;;41.33;28.17;;;14.20;99.90;;;;;;5056135;28;20487;-76
2022/03/26 09:22:10;;;;;;;43.78;28.33;;;14.30;99.90;;;;;;5055997;28;20033;-77
2022/03/26 09:24:36;;;;;;;43.63;29.23;;;14.40;99.90;;;;;;5055766;28;20136;-75
2022/03/26 09:27:01;;;;;;;39.33;25.25;;;14.40;99.90;;;;;;5039914;28;20056;-77
2022/03/26 09:29:27;;;;;;;37.33;26.85;;;14.40;99.90;;;;;;5056038;28;20071;-76
2022/03/26 09:31:53;;;;;;;39.03;25.30;;;14.40;99.90;;;;;;5039256;28;20090;-76
2022/03/26 09:34:19;;;;;;;34.33;23.88;;;14.50;99.90;;;;;;5056227;28;20040;-77
2022/03/26 09:36:45;;;;;;;37.55;25.67;;;14.50;99.90;;;;;;5072715;28;20033;-77
2022/03/26 09:39:11;;;;;;;31.65;20.88;;;14.60;99.90;;;;;;5055682;28;20531;-77
2022/03/26 09:41:36;;;;;;;30.75;21.83;;;14.80;99.90;;;;;;5072549;28;20105;-77
2022/03/26 09:44:03;;;;;;;28.20;19.85;;;14.80;99.90;;;;;;5072230;28;20040;-78
2022/03/26 09:46:28;;;;;;;33.67;22.23;;;14.90;99.90;;;;;;5072192;28;20142;-78
2022/03/26 09:48:54;;;;;;;30.38;19.88;;;15.00;99.90;;;;;;5055260;28;20554;-78
2022/03/26 09:51:23;;;;;;;28.42;17.67;;;15.10;99.90;;;;;;5055587;28;20037;-77
2022/03/26 09:53:51;;;;;;;26.92;17.50;;;15.20;99.90;;;;;;5055508;28;20036;-76
2022/03/26 09:56:18;;;;;;;24.17;16.58;;;15.30;99.90;;;;;;5055241;28;20040;-79
2022/03/26 09:58:46;;;;;;;19.63;14.63;;;15.40;99.90;;;;;;5055344;28;20148;-78
2022/03/26 10:01:11;;;;;;;22.38;14.80;;;15.50;99.90;;;;;;5072074;28;20072;-81
2022/03/26 10:03:41;;;;;;;25.30;15.80;;;15.50;99.90;;;;;;5055583;28;20071;-78
2022/03/26 10:06:07;;;;;;;22.27;15.38;;;15.60;99.90;;;;;;5055578;28;20032;-83
2022/03/26 10:08:38;;;;;;;15.35;9.93;;;15.70;99.90;;;;;;5055533;28;20040;-76
2022/03/26 10:11:06;;;;;;;21.38;11.85;;;15.70;99.90;;;;;;5055317;28;20036;-76
2022/03/26 10:13:43;;;;;;;20.73;14.48;;;15.80;99.90;;;;;;5072509;28;20581;-92
2022/03/26 10:16:13;;;;;;;20.77;14.43;;;15.80;99.90;;;;;;5055638;28;20051;-83
2022/03/26 10:18:41;;;;;;;19.95;13.98;;;15.80;99.90;;;;;;5055096;28;20128;-78
2022/03/26 10:21:27;;;;;;;22.05;15.07;;;15.90;99.90;;;;;;5071821;28;20040;-78
2022/03/26 10:23:54;;;;;;;26.75;16.73;;;16.10;99.90;;;;;;5054754;28;20131;-78
2022/03/26 10:26:22;;;;;;;26.63;16.73;;;16.00;99.90;;;;;;5054808;28;20044;-78
2022/03/26 10:28:56;;;;;;;21.52;15.13;;;16.20;99.90;;;;;;5071420;28;20040;-77
2022/03/26 10:34:19;;;;;;;19.02;13.68;;;16.40;99.90;;;;;;5071463;28;20051;-79
2022/03/26 10:36:56;;;;;;;19.63;14.57;;;16.50;99.90;;;;;;5054876;28;20040;-77
2022/03/26 10:39:24;;;;;;;21.40;15.15;;;16.50;99.90;;;;;;5055069;28;20080;-78
2022/03/26 10:41:57;;;;;;;17.48;12.65;;;16.60;99.90;;;;;;5071070;28;20044;-78
2022/03/26 10:44:29;;;;;;;20.15;13.75;;;16.60;99.90;;;;;;5054853;28;20079;-77
2022/03/26 10:47:00;;;;;;;18.83;13.45;;;16.60;99.90;;;;;;5071489;28;20105;-78
2022/03/26 10:49:33;;;;;;;17.85;12.38;;;16.60;99.90;;;;;;5071124;28;20093;-79
2022/03/26 10:52:12;;;;;;;15.48;11.10;;;16.70;99.90;;;;;;5071248;28;20040;-79
2022/03/26 10:54:38;;;;;;;14.75;10.77;;;16.60;99.90;;;;;;5071178;28;20120;-79
2022/03/26 10:57:05;;;;;;;15.98;11.50;;;16.60;99.90;;;;;;5037862;28;20147;-79
2022/03/26 10:59:31;;;;;;;17.13;11.45;;;16.70;99.90;;;;;;5053508;28;20036;-79
2022/03/26 11:01:58;;;;;;;17.70;11.95;;;16.80;99.90;;;;;;5070836;28;20037;-80
2022/03/26 11:04:26;;;;;;;20.35;11.88;;;16.80;99.90;;;;;;5054090;28;20036;-80
2022/03/26 11:06:53;;;;;;;14.45;10.70;;;16.90;99.90;;;;;;5070617;28;20069;-78
2022/03/26 11:09:20;;;;;;;15.45;10.25;;;16.90;99.90;;;;;;5037583;28;20040;-80
2022/03/26 11:11:48;;;;;;;14.40;10.07;;;16.90;99.90;;;;;;5054054;28;20040;-77
2022/03/26 11:14:24;;;;;;;14.40;10.73;;;16.90;99.90;;;;;;5037833;28;20037;-77
2022/03/26 11:16:52;;;;;;;15.32;11.07;;;16.90;99.90;;;;;;5070842;28;20067;-77
2022/03/26 11:19:30;;;;;;;13.10;9.68;;;17.00;99.90;;;;;;5070646;28;20044;-76
2022/03/26 11:22:34;;;;;;;12.70;9.00;;;17.00;99.90;;;;;;5070632;28;20044;-76
2022/03/26 11:25:29;;;;;;;16.30;9.30;;;17.00;99.90;;;;;;5070134;28;20056;-76
2022/03/26 11:28:00;;;;;;;15.35;9.45;;;17.10;99.90;;;;;;5057641;28;20052;-76
2022/03/26 11:30:38;;;;;;;16.30;9.20;;;17.20;99.90;;;;;;5053789;28;20040;-79
2022/03/26 11:33:11;;;;;;;13.30;9.43;;;17.40;99.90;;;;;;5054053;28;20047;-79
2022/03/26 11:35:58;;;;;;;13.45;9.63;;;17.40;99.90;;;;;;5070719;28;20052;-78
2022/03/26 11:38:29;;;;;;;13.18;9.02;;;17.60;99.90;;;;;;5070456;28;20045;-80
2022/03/26 11:40:56;;;;;;;;;;;17.50;99.90;;;;;;5070922;28;20047;-78
2022/03/26 11:43:44;;;;;;;13.98;10.20;;;17.70;99.90;;;;;;5053937;28;19927;-75
2022/03/26 11:52:11;;;;;;;12.25;8.52;;;17.80;99.90;;;;;;5070772;28;20055;-86
2022/03/26 11:54:36;;;;;;;12.05;8.25;;;17.90;99.90;;;;;;5054267;28;20039;-88
2022/03/26 11:57:17;;;;;;;12.73;8.32;;;17.90;99.90;;;;;;5053648;28;20474;-78
2022/03/26 11:59:43;;;;;;;11.30;7.78;;;17.80;99.90;;;;;;5053554;28;20107;-78
2022/03/26 12:02:16;;;;;;;12.82;7.57;;;17.90;99.90;;;;;;5070583;28;20048;-76
2022/03/26 12:06:35;;;;;;;15.85;7.70;;;17.90;99.90;;;;;;5053479;28;20143;-78
2022/03/26 12:07:50;;;;;;;8.30;6.80;;;18.10;99.90;;;;;;5070100;28;20041;-78
2022/03/26 12:10:19;;;;;;;8.55;6.72;;;18.10;99.90;;;;;;5053555;28;20086;-78
2022/03/26 12:12:46;;;;;;;9.63;7.45;;;18.10;99.90;;;;;;5074389;28;20083;-77
2022/03/26 12:15:13;;;;;;;7.63;6.60;;;18.00;99.90;;;;;;5041241;28;20084;-78
2022/03/26 12:17:53;;;;;;;7.43;5.97;;;18.10;99.90;;;;;;5074197;28;20123;-75
2022/03/26 12:20:32;;;;;;;9.40;5.95;;;18.00;99.90;;;;;;5074214;28;20434;-75
2022/03/26 12:23:23;;;;;;;8.18;5.97;;;18.20;99.90;;;;;;5073914;28;20071;-75
2022/03/26 12:26:08;;;;;;;9.55;6.03;;;18.30;99.90;;;;;;5073477;28;20101;-77
2022/03/26 12:28:38;;;;;;;9.05;5.75;;;18.30;99.90;;;;;;5074189;28;20117;-78
2022/03/26 12:31:10;;;;;;;8.13;5.43;;;18.40;99.90;;;;;;5057071;28;20059;-77
2022/03/26 12:33:47;;;;;;;10.98;5.53;;;18.40;99.90;;;;;;5073771;28;20045;-77
2022/03/26 12:36:16;;;;;;;7.63;5.32;;;18.30;99.90;;;;;;5073629;28;20045;-75
2022/03/26 12:38:47;;;;;;;7.80;5.85;;;18.40;99.90;;;;;;5074014;28;20036;-79
2022/03/26 12:41:14;;;;;;;10.45;5.82;;;18.50;99.90;;;;;;5057096;28;20040;-75
2022/03/26 12:43:39;;;;;;;7.28;5.63;;;18.60;99.90;;;;;;5073924;28;20492;-75
2022/03/26 12:46:13;;;;;;;7.85;5.35;;;18.40;99.30;;;;;;5056817;28;20127;-75